Time;durP1;ratioP1;P1;durP2;ratioP2;P2;SDS_P1;SDS_P2;PMS_P1;PMS_P2;Temp;Humidity;BMP_temperature;BMP_pressure;BME280_temperature;BME280_humidity;BME280_pressure;Samples;Min_cycle;Max_cycle;Signal;HPM_P1;HPM_P2
2022/01/01 00:01:47;;;;;;;161.10;109.65;;;;;;;;;;143734;569;46023;-80
2022/01/01 00:04:18;;;;;;;145.30;107.32;;;;;;;;;;143735;577;46012;-79
2022/01/01 00:06:47;;;;;;;142.82;98.28;;;;;;;;;;143734;607;47020;-81
2022/01/01 00:09:15;;;;;;;137.50;97.15;;;;;;;;;;143737;585;46018;-82
2022/01/01 00:11:43;;;;;;;124.50;89.65;;;;;;;;;;143734;585;47020;-80
2022/01/01 00:14:11;;;;;;;114.20;76.22;;;;;;;;;;143735;571;46015;-80
2022/01/01 00:16:38;;;;;;;113.82;78.57;;;;;;;;;;143734;575;47020;-79
2022/01/01 00:19:05;;;;;;;77.37;57.90;;;;;;;;;;143734;634;46012;-81
2022/01/01 00:21:36;;;;;;;79.60;58.17;;;;;;;;;;143734;565;47022;-80
2022/01/01 00:24:05;;;;;;;83.30;56.50;;;;;;;;;;143734;591;46012;-81
2022/01/01 00:26:34;;;;;;;80.50;57.83;;;;;;;;;;143736;595;46014;-80
2022/01/01 00:29:03;;;;;;;87.82;59.92;;;;;;;;;;143737;616;46012;-79
2022/01/01 00:31:30;;;;;;;84.93;58.75;;;;;;;;;;143733;592;47020;-79
2022/01/01 00:33:59;;;;;;;80.30;57.40;;;;;;;;;;143735;585;46012;-80
2022/01/01 00:36:31;;;;;;;78.62;56.50;;;;;;;;;;143736;590;46020;-80
2022/01/01 00:39:06;;;;;;;77.87;55.07;;;;;;;;;;143735;684;47012;-80
2022/01/01 00:41:32;;;;;;;72.40;47.88;;;;;;;;;;143734;563;46048;-81
2022/01/01 00:43:59;;;;;;;73.85;49.88;;;;;;;;;;143733;570;48012;-80
2022/01/01 00:46:27;;;;;;;56.67;41.45;;;;;;;;;;143735;597;46020;-81
2022/01/01 00:48:55;;;;;;;71.70;50.65;;;;;;;;;;143736;617;46020;-80
2022/01/01 00:51:21;;;;;;;57.95;42.53;;;;;;;;;;143736;583;46022;-79
2022/01/01 00:53:50;;;;;;;56.42;40.15;;;;;;;;;;143734;605;46020;-79
2022/01/01 00:56:17;;;;;;;47.42;36.30;;;;;;;;;;143736;619;46020;-80
2022/01/01 00:58:44;;;;;;;40.83;30.45;;;;;;;;;;143738;557;46020;-80
2022/01/01 01:01:11;;;;;;;36.00;24.42;;;;;;;;;;143734;655;46023;-80
2022/01/01 01:03:41;;;;;;;37.55;26.40;;;;;;;;;;143733;580;46012;-79
2022/01/01 01:06:14;;;;;;;43.38;28.62;;;;;;;;;;143732;610;46015;-80
2022/01/01 01:08:42;;;;;;;54.67;34.03;;;;;;;;;;143734;576;46012;-79
2022/01/01 01:11:12;;;;;;;40.28;29.25;;;;;;;;;;143730;593;46022;-82
2022/01/01 01:13:42;;;;;;;37.03;25.27;;;;;;;;;;143732;569;46013;-80
2022/01/01 01:16:19;;;;;;;41.97;28.55;;;;;;;;;;143737;599;46020;-80
2022/01/01 01:18:46;;;;;;;53.33;35.83;;;;;;;;;;143732;595;47020;-81
2022/01/01 01:21:16;;;;;;;46.88;31.12;;;;;;;;;;143731;580;47020;-80
2022/01/01 01:23:46;;;;;;;60.75;40.08;;;;;;;;;;143732;606;46012;-80
2022/01/01 01:26:12;;;;;;;48.15;35.40;;;;;;;;;;143732;593;46020;-81
2022/01/01 01:28:48;;;;;;;47.00;28.90;;;;;;;;;;143733;608;47021;-80
2022/01/01 01:31:15;;;;;;;39.17;27.15;;;;;;;;;;143731;581;47020;-80
2022/01/01 01:33:45;;;;;;;46.33;29.67;;;;;;;;;;143733;661;46012;-81
2022/01/01 01:36:12;;;;;;;45.12;31.80;;;;;;;;;;143731;577;47021;-81
2022/01/01 01:38:39;;;;;;;54.40;35.78;;;;;;;;;;143735;585;46012;-80
2022/01/01 01:41:07;;;;;;;48.30;31.90;;;;;;;;;;143731;595;47022;-80
2022/01/01 01:43:35;;;;;;;42.20;30.75;;;;;;;;;;143732;629;46013;-80
2022/01/01 01:46:09;;;;;;;49.03;32.55;;;;;;;;;;143732;611;47020;-81
2022/01/01 01:48:44;;;;;;;41.08;31.02;;;;;;;;;;143734;614;46012;-80
2022/01/01 01:51:12;;;;;;;50.75;33.28;;;;;;;;;;143731;599;47022;-81
2022/01/01 01:53:42;;;;;;;41.28;30.73;;;;;;;;;;143732;602;46020;-80
2022/01/01 01:56:09;;;;;;;40.10;29.42;;;;;;;;;;143732;588;46020;-81
2022/01/01 01:58:37;;;;;;;38.88;28.48;;;;;;;;;;143734;583;46013;-80
2022/01/01 02:01:20;;;;;;;37.22;27.55;;;;;;;;;;143731;586;47023;-80
2022/01/01 02:03:51;;;;;;;37.08;25.65;;;;;;;;;;143733;636;46012;-81
2022/01/01 02:06:20;;;;;;;35.17;25.75;;;;;;;;;;143735;561;46020;-80
2022/01/01 02:08:49;;;;;;;37.63;25.52;;;;;;;;;;143732;570;47012;-80
2022/01/01 02:11:20;;;;;;;31.80;24.67;;;;;;;;;;143732;606;46049;-80
2022/01/01 02:20:00;;;;;;;;;;;;;;;;;;143739;974;46021;-81
2022/01/01 02:22:48;;;;;;;56.70;39.22;;;;;;;;;;143734;608;47020;-79
2022/01/01 02:25:19;;;;;;;55.50;40.78;;;;;;;;;;143732;585;46010;-81
2022/01/01 02:27:47;;;;;;;47.92;32.22;;;;;;;;;;143736;667;46019;-80
2022/01/01 02:30:15;;;;;;;33.95;24.12;;;;;;;;;;143735;639;46010;-81
2022/01/01 02:32:43;;;;;;;32.33;22.02;;;;;;;;;;143731;593;47020;-81
2022/01/01 02:35:11;;;;;;;25.05;18.45;;;;;;;;;;143733;584;46010;-81
2022/01/01 02:37:39;;;;;;;31.30;22.60;;;;;;;;;;143732;639;46021;-80
2022/01/01 02:40:09;;;;;;;27.10;21.67;;;;;;;;;;143735;571;46020;-81
2022/01/01 02:42:38;;;;;;;34.25;21.50;;;;;;;;;;143731;566;47022;-81
2022/01/01 02:45:08;;;;;;;31.45;19.92;;;;;;;;;;143732;636;46012;-81
2022/01/01 02:47:39;;;;;;;32.92;19.20;;;;;;;;;;143731;609;47020;-80
2022/01/01 02:50:08;;;;;;;28.10;17.98;;;;;;;;;;143735;583;46011;-81
2022/01/01 02:52:35;;;;;;;28.35;18.42;;;;;;;;;;143731;612;47023;-81
2022/01/01 02:55:02;;;;;;;39.05;26.50;;;;;;;;;;143732;606;46010;-79
2022/01/01 02:57:28;;;;;;;45.50;29.67;;;;;;;;;;143732;735;47020;-80
2022/01/01 02:59:55;;;;;;;40.55;26.87;;;;;;;;;;143734;574;46018;-80
2022/01/01 03:02:21;;;;;;;52.70;30.90;;;;;;;;;;143731;600;46022;-79
2022/01/01 03:04:48;;;;;;;50.35;31.50;;;;;;;;;;143733;583;46021;-80
2022/01/01 03:07:21;;;;;;;47.85;28.45;;;;;;;;;;143734;711;46021;-80
2022/01/01 03:09:51;;;;;;;39.50;25.58;;;;;;;;;;143734;583;46020;-80
2022/01/01 03:12:25;;;;;;;45.83;27.02;;;;;;;;;;143731;587;46022;-81
2022/01/01 03:15:01;;;;;;;36.85;25.48;;;;;;;;;;143731;607;46010;-79
2022/01/01 03:17:28;;;;;;;37.25;25.35;;;;;;;;;;143733;582;46020;-79
2022/01/01 03:19:57;;;;;;;27.27;20.17;;;;;;;;;;143735;569;46011;-80
2022/01/01 03:22:26;;;;;;;32.40;22.17;;;;;;;;;;143732;638;47020;-80
2022/01/01 03:24:55;;;;;;;40.45;29.85;;;;;;;;;;143733;574;46020;-80
2022/01/01 03:27:21;;;;;;;59.65;37.20;;;;;;;;;;143732;601;47020;-80
2022/01/01 03:29:48;;;;;;;55.58;37.83;;;;;;;;;;143734;600;46021;-81
2022/01/01 03:32:15;;;;;;;60.05;38.35;;;;;;;;;;143731;573;47022;-80
2022/01/01 03:34:43;;;;;;;58.20;39.05;;;;;;;;;;143732;564;46013;-79
2022/01/01 03:37:09;;;;;;;40.22;27.70;;;;;;;;;;143730;570;46021;-81
2022/01/01 03:39:39;;;;;;;37.63;24.17;;;;;;;;;;143734;577;46010;-81
2022/01/01 03:42:06;;;;;;;44.10;29.52;;;;;;;;;;143732;564;47022;-80
2022/01/01 03:44:35;;;;;;;41.50;26.37;;;;;;;;;;143731;566;46010;-79
2022/01/01 03:47:09;;;;;;;39.53;27.55;;;;;;;;;;143734;593;46049;-80
2022/01/01 03:49:39;;;;;;;35.30;23.30;;;;;;;;;;143735;681;46011;-80
2022/01/01 03:52:07;;;;;;;40.20;24.87;;;;;;;;;;143732;666;46023;-79
2022/01/01 03:54:37;;;;;;;31.83;21.65;;;;;;;;;;143732;564;46012;-80
2022/01/01 03:57:04;;;;;;;26.80;18.48;;;;;;;;;;143732;696;46021;-79
2022/01/01 03:59:31;;;;;;;25.77;17.48;;;;;;;;;;143733;588;47010;-79
2022/01/01 04:01:58;;;;;;;23.38;15.63;;;;;;;;;;143731;663;47022;-80
2022/01/01 04:04:26;;;;;;;20.02;14.48;;;;;;;;;;143731;576;47021;-80
2022/01/01 04:06:53;;;;;;;22.10;14.43;;;;;;;;;;143735;708;46020;-81
2022/01/01 04:09:19;;;;;;;25.17;16.87;;;;;;;;;;143736;607;46010;-81
2022/01/01 04:11:46;;;;;;;25.30;17.37;;;;;;;;;;143731;651;47022;-80
2022/01/01 04:14:16;;;;;;;27.90;16.52;;;;;;;;;;143731;583;46019;-80
2022/01/01 04:16:46;;;;;;;28.48;15.27;;;;;;;;;;143733;566;46020;-80
2022/01/01 04:19:14;;;;;;;20.77;16.33;;;;;;;;;;143736;675;46020;-80
2022/01/01 04:21:41;;;;;;;22.92;15.18;;;;;;;;;;143731;576;46023;-80
2022/01/01 04:24:08;;;;;;;20.23;14.98;;;;;;;;;;143734;570;46020;-80
2022/01/01 04:26:36;;;;;;;27.52;18.58;;;;;;;;;;143732;634;46020;-80
2022/01/01 04:29:02;;;;;;;25.45;18.67;;;;;;;;;;143736;583;46018;-80
2022/01/01 04:31:29;;;;;;;29.58;21.37;;;;;;;;;;143730;581;47022;-80
2022/01/01 04:33:55;;;;;;;34.92;28.40;;;;;;;;;;143731;570;46012;-81
2022/01/01 04:36:23;;;;;;;30.48;27.13;;;;;;;;;;143732;564;46021;-80
2022/01/01 04:38:49;;;;;;;33.58;25.42;;;;;;;;;;143733;592;46012;-80
2022/01/01 04:41:17;;;;;;;22.73;18.52;;;;;;;;;;143730;565;47022;-79
2022/01/01 04:43:47;;;;;;;26.20;18.98;;;;;;;;;;143729;564;46012;-80
2022/01/01 04:46:13;;;;;;;22.80;17.15;;;;;;;;;;143733;640;47020;-79
2022/01/01 04:48:40;;;;;;;18.33;15.95;;;;;;;;;;143734;625;46011;-80
2022/01/01 04:51:08;;;;;;;23.20;16.40;;;;;;;;;;143731;707;46012;-80
2022/01/01 04:53:36;;;;;;;23.55;16.15;;;;;;;;;;143730;570;46012;-80
2022/01/01 04:56:06;;;;;;;21.37;16.45;;;;;;;;;;143734;570;46020;-80
2022/01/01 04:58:33;;;;;;;28.73;18.62;;;;;;;;;;143733;588;47010;-80
2022/01/01 05:01:01;;;;;;;28.60;18.17;;;;;;;;;;143732;578;47022;-80
2022/01/01 05:03:27;;;;;;;24.95;17.58;;;;;;;;;;143732;591;46010;-81
2022/01/01 05:05:54;;;;;;;26.52;18.12;;;;;;;;;;143732;574;46021;-80
2022/01/01 05:08:21;;;;;;;24.35;17.37;;;;;;;;;;143733;643;46012;-81
2022/01/01 05:10:47;;;;;;;31.48;16.42;;;;;;;;;;143732;572;46015;-81
2022/01/01 05:13:14;;;;;;;25.37;17.25;;;;;;;;;;143731;646;46010;-80
2022/01/01 05:15:40;;;;;;;26.25;17.90;;;;;;;;;;143734;703;46020;-80
2022/01/01 05:18:08;;;;;;;20.98;16.12;;;;;;;;;;143733;585;47020;-81
2022/01/01 05:20:34;;;;;;;23.30;15.82;;;;;;;;;;143733;575;46023;-81
2022/01/01 05:23:01;;;;;;;20.08;14.05;;;;;;;;;;143730;585;46010;-80
2022/01/01 05:25:28;;;;;;;20.48;15.48;;;;;;;;;;143733;665;46020;-80
2022/01/01 05:27:54;;;;;;;20.55;16.42;;;;;;;;;;143732;593;46013;-80
2022/01/01 05:30:21;;;;;;;22.80;16.65;;;;;;;;;;143733;608;46022;-80
2022/01/01 05:32:48;;;;;;;20.42;14.40;;;;;;;;;;143733;577;46020;-80
2022/01/01 05:35:14;;;;;;;18.92;15.18;;;;;;;;;;143734;569;46012;-81
2022/01/01 05:37:41;;;;;;;35.67;25.92;;;;;;;;;;143734;592;46018;-81
2022/01/01 05:40:09;;;;;;;24.58;17.48;;;;;;;;;;143730;615;47020;-82
2022/01/01 05:42:36;;;;;;;22.10;13.27;;;;;;;;;;143732;590;46012;-80
2022/01/01 05:45:03;;;;;;;18.10;12.45;;;;;;;;;;143733;573;46020;-80
2022/01/01 05:47:30;;;;;;;19.98;12.10;;;;;;;;;;143734;584;47020;-81
2022/01/01 05:49:58;;;;;;;23.08;13.85;;;;;;;;;;143733;580;46021;-81
2022/01/01 05:52:26;;;;;;;19.92;13.90;;;;;;;;;;143732;585;46010;-80
2022/01/01 05:54:54;;;;;;;22.25;15.32;;;;;;;;;;143734;702;46012;-80
2022/01/01 05:57:20;;;;;;;24.15;16.67;;;;;;;;;;143733;666;46021;-80
2022/01/01 05:59:47;;;;;;;24.42;16.70;;;;;;;;;;143732;591;46022;-80
2022/01/01 06:02:14;;;;;;;19.98;14.38;;;;;;;;;;143731;714;47010;-80
2022/01/01 06:04:40;;;;;;;20.85;14.52;;;;;;;;;;143733;682;46021;-80
2022/01/01 06:07:07;;;;;;;20.67;14.07;;;;;;;;;;143735;618;46026;-80
2022/01/01 06:09:34;;;;;;;21.83;13.95;;;;;;;;;;143732;604;46022;-80
2022/01/01 06:12:00;;;;;;;22.13;12.90;;;;;;;;;;143733;637;46012;-81
2022/01/01 06:14:27;;;;;;;19.70;13.65;;;;;;;;;;143732;651;47020;-79
2022/01/01 06:16:54;;;;;;;15.48;11.95;;;;;;;;;;143734;569;46010;-80
2022/01/01 06:19:21;;;;;;;15.75;12.02;;;;;;;;;;143731;616;46044;-80
2022/01/01 06:21:48;;;;;;;26.80;16.05;;;;;;;;;;143733;599;46020;-80
2022/01/01 06:24:14;;;;;;;23.85;14.85;;;;;;;;;;143734;579;46012;-80
2022/01/01 06:26:41;;;;;;;29.80;23.25;;;;;;;;;;143735;577;46011;-80
2022/01/01 06:29:08;;;;;;;54.17;38.47;;;;;;;;;;143731;569;47023;-80
2022/01/01 06:31:35;;;;;;;35.88;27.77;;;;;;;;;;143733;620;46012;-80
2022/01/01 06:34:02;;;;;;;31.98;23.42;;;;;;;;;;143733;591;46021;-80
2022/01/01 06:36:29;;;;;;;30.85;21.33;;;;;;;;;;143737;569;46010;-80
2022/01/01 06:38:55;;;;;;;32.10;18.87;;;;;;;;;;143734;567;46014;-78
2022/01/01 06:41:24;;;;;;;24.25;16.48;;;;;;;;;;143732;576;46021;-81
2022/01/01 06:43:52;;;;;;;24.00;17.25;;;;;;;;;;143733;732;46020;-79
2022/01/01 06:46:18;;;;;;;21.65;16.98;;;;;;;;;;143733;758;46020;-81
2022/01/01 06:48:46;;;;;;;23.85;18.08;;;;;;;;;;143733;577;46014;-80
2022/01/01 06:51:13;;;;;;;23.23;17.12;;;;;;;;;;143735;566;46020;-81
2022/01/01 06:53:39;;;;;;;24.80;18.00;;;;;;;;;;143730;569;47020;-80
2022/01/01 06:56:06;;;;;;;28.87;20.30;;;;;;;;;;143735;618;46019;-80
2022/01/01 06:58:37;;;;;;;26.45;20.95;;;;;;;;;;143735;703;46020;-79
2022/01/01 07:01:05;;;;;;;31.58;23.92;;;;;;;;;;143734;611;46010;-80
2022/01/01 07:03:34;;;;;;;43.83;27.45;;;;;;;;;;143731;571;46021;-80
2022/01/01 07:06:01;;;;;;;30.95;24.77;;;;;;;;;;143735;569;46010;-80
2022/01/01 07:08:29;;;;;;;32.78;23.50;;;;;;;;;;143733;683;46020;-81
2022/01/01 07:10:56;;;;;;;31.55;23.05;;;;;;;;;;143734;603;46021;-81
2022/01/01 07:13:24;;;;;;;28.87;22.17;;;;;;;;;;143731;577;47020;-79
2022/01/01 07:15:55;;;;;;;27.00;19.50;;;;;;;;;;143736;590;46010;-81
2022/01/01 07:18:22;;;;;;;24.05;18.98;;;;;;;;;;143732;659;47022;-79
2022/01/01 07:20:49;;;;;;;22.83;18.85;;;;;;;;;;143734;603;46012;-80
2022/01/01 07:23:15;;;;;;;26.10;20.05;;;;;;;;;;143733;588;47020;-80
2022/01/01 07:25:42;;;;;;;35.63;23.30;;;;;;;;;;143737;567;45028;-80
2022/01/01 07:28:13;;;;;;;33.72;26.48;;;;;;;;;;143732;561;46020;-80
2022/01/01 07:30:39;;;;;;;28.02;21.75;;;;;;;;;;143734;618;46010;-81
2022/01/01 07:33:12;;;;;;;25.42;19.87;;;;;;;;;;143734;616;46021;-81
2022/01/01 07:35:41;;;;;;;15.90;12.80;;;;;;;;;;143735;591;46010;-80
2022/01/01 07:38:07;;;;;;;18.50;13.60;;;;;;;;;;143732;604;47022;-79
2022/01/01 07:40:38;;;;;;;22.58;13.73;;;;;;;;;;143736;625;46010;-80
2022/01/01 07:43:16;;;;;;;18.12;14.35;;;;;;;;;;143736;591;46018;-80
2022/01/01 07:45:46;;;;;;;20.40;15.45;;;;;;;;;;143737;613;46010;-79
2022/01/01 07:48:13;;;;;;;16.45;13.73;;;;;;;;;;143734;570;46022;-80
2022/01/01 07:50:40;;;;;;;16.60;13.13;;;;;;;;;;143733;727;46010;-79
2022/01/01 07:53:08;;;;;;;18.12;14.05;;;;;;;;;;143733;576;46020;-79
2022/01/01 07:55:45;;;;;;;17.10;14.52;;;;;;;;;;143732;576;47020;-80
2022/01/01 07:58:12;;;;;;;20.95;14.30;;;;;;;;;;143732;570;46023;-80
2022/01/01 08:00:39;;;;;;;21.70;13.80;;;;;;;;;;143732;606;46010;-79
2022/01/01 08:03:15;;;;;;;16.50;13.70;;;;;;;;;;143733;622;46021;-78
2022/01/01 08:05:42;;;;;;;20.70;15.75;;;;;;;;;;143733;596;47020;-78
2022/01/01 08:08:11;;;;;;;18.17;14.93;;;;;;;;;;143732;585;47022;-79
2022/01/01 08:10:39;;;;;;;18.75;15.43;;;;;;;;;;143732;580;46011;-78
2022/01/01 08:13:08;;;;;;;24.92;16.98;;;;;;;;;;143734;578;46020;-80
2022/01/01 08:15:35;;;;;;;23.85;17.08;;;;;;;;;;143735;616;46018;-79
2022/01/01 08:18:02;;;;;;;21.65;18.58;;;;;;;;;;143733;571;46012;-79
2022/01/01 08:20:28;;;;;;;22.23;18.85;;;;;;;;;;143732;590;46012;-80
2022/01/01 08:22:55;;;;;;;24.70;20.17;;;;;;;;;;143733;576;46020;-79
2022/01/01 08:25:24;;;;;;;34.10;24.23;;;;;;;;;;143736;583;46012;-78
2022/01/01 08:27:51;;;;;;;28.65;22.55;;;;;;;;;;143734;577;46023;-81
2022/01/01 08:30:18;;;;;;;30.58;21.65;;;;;;;;;;143733;602;46012;-78
2022/01/01 08:32:47;;;;;;;29.85;23.40;;;;;;;;;;143732;569;46021;-79
2022/01/01 08:35:14;;;;;;;32.22;25.42;;;;;;;;;;143736;636;46010;-78
2022/01/01 08:37:42;;;;;;;33.38;28.17;;;;;;;;;;143733;587;47022;-79
2022/01/01 08:40:18;;;;;;;29.42;22.08;;;;;;;;;;143733;602;46010;-79
2022/01/01 08:42:44;;;;;;;18.45;14.30;;;;;;;;;;143733;564;46021;-79
2022/01/01 08:45:12;;;;;;;17.17;13.48;;;;;;;;;;143735;564;46012;-78
2022/01/01 08:47:38;;;;;;;19.77;15.38;;;;;;;;;;143735;575;46022;-79
2022/01/01 08:50:10;;;;;;;20.52;15.15;;;;;;;;;;143731;631;46010;-78
2022/01/01 08:52:43;;;;;;;19.48;13.98;;;;;;;;;;143736;581;46020;-80
2022/01/01 08:55:10;;;;;;;16.73;14.38;;;;;;;;;;143735;571;47019;-78
2022/01/01 08:57:38;;;;;;;17.75;14.45;;;;;;;;;;143731;608;47023;-79
2022/01/01 09:00:09;;;;;;;16.60;14.80;;;;;;;;;;143732;572;47020;-79
2022/01/01 09:02:45;;;;;;;15.65;13.95;;;;;;;;;;143736;583;46020;-80
2022/01/01 09:05:12;;;;;;;17.70;13.98;;;;;;;;;;143738;588;46020;-79
2022/01/01 09:07:42;;;;;;;17.73;14.57;;;;;;;;;;143734;585;46020;-79
2022/01/01 09:10:09;;;;;;;19.98;14.23;;;;;;;;;;143734;606;46011;-81
2022/01/01 09:12:54;;;;;;;17.60;14.32;;;;;;;;;;143735;590;46012;-80
2022/01/01 09:15:24;;;;;;;16.45;13.13;;;;;;;;;;143735;582;46010;-81
2022/01/01 09:17:52;;;;;;;17.95;11.15;;;;;;;;;;143734;647;47022;-80
2022/01/01 09:20:19;;;;;;;15.35;12.88;;;;;;;;;;143736;613;46020;-80
2022/01/01 09:22:48;;;;;;;15.85;13.02;;;;;;;;;;143732;638;47020;-81
2022/01/01 09:25:15;;;;;;;21.77;15.02;;;;;;;;;;143736;596;46010;-79
2022/01/01 09:27:42;;;;;;;19.05;14.85;;;;;;;;;;143735;569;46020;-79
2022/01/01 09:30:11;;;;;;;15.63;13.52;;;;;;;;;;143733;591;46010;-81
2022/01/01 09:32:40;;;;;;;18.50;13.18;;;;;;;;;;143736;614;46012;-79
2022/01/01 09:35:09;;;;;;;17.23;13.62;;;;;;;;;;143737;573;46010;-79
2022/01/01 09:37:35;;;;;;;20.55;14.13;;;;;;;;;;143732;577;47022;-79
2022/01/01 09:40:03;;;;;;;15.27;13.00;;;;;;;;;;143736;603;46010;-79
2022/01/01 09:42:30;;;;;;;13.57;11.05;;;;;;;;;;143737;612;46021;-78
2022/01/01 09:44:58;;;;;;;17.27;12.82;;;;;;;;;;143737;592;46010;-79
2022/01/01 09:47:26;;;;;;;14.55;11.50;;;;;;;;;;143736;593;47022;-80
2022/01/01 09:49:54;;;;;;;15.75;11.63;;;;;;;;;;143738;650;46020;-79
2022/01/01 09:52:24;;;;;;;19.23;12.00;;;;;;;;;;143736;577;46020;-78
2022/01/01 09:54:51;;;;;;;15.90;12.50;;;;;;;;;;143737;811;46019;-80
2022/01/01 09:57:31;;;;;;;;;;;;;;;;;;;;;
2022/01/01 10:00:01;;;;;;;21.77;15.60;;;;;;;;;;143736;595;46010;-78
2022/01/01 10:02:29;;;;;;;29.40;21.48;;;;;;;;;;143736;567;47021;-78
2022/01/01 10:05:07;;;;;;;25.08;19.20;;;;;;;;;;143736;660;46010;-80
2022/01/01 10:07:43;;;;;;;17.23;9.48;;;;;;;;;;143731;624;48020;-81
2022/01/01 10:10:19;;;;;;;9.10;5.82;;;;;;;;;;143735;636;46010;-80
2022/01/01 10:12:50;;;;;;;8.25;7.25;;;;;;;;;;143736;605;46020;-80
2022/01/01 10:15:17;;;;;;;7.50;5.30;;;;;;;;;;143735;598;46010;-80
2022/01/01 10:17:44;;;;;;;7.75;5.45;;;;;;;;;;143736;585;46022;-80
2022/01/01 10:20:17;;;;;;;8.50;5.87;;;;;;;;;;143737;637;46020;-79
2022/01/01 10:22:44;;;;;;;13.82;7.72;;;;;;;;;;143736;569;46020;-82
2022/01/01 10:28:10;;;;;;;9.85;7.72;;;;;;;;;;143737;578;46020;-79
2022/01/01 10:30:43;;;;;;;10.35;9.00;;;;;;;;;;143736;598;46010;-81
2022/01/01 10:33:16;;;;;;;15.20;9.40;;;;;;;;;;143736;574;46021;-81
2022/01/01 10:35:58;;;;;;;18.02;12.43;;;;;;;;;;143735;780;46010;-81
2022/01/01 10:38:28;;;;;;;17.27;12.57;;;;;;;;;;143735;604;46032;-79
2022/01/01 10:41:09;;;;;;;16.23;14.13;;;;;;;;;;143733;862;46010;-81
2022/01/01 10:43:37;;;;;;;18.10;14.07;;;;;;;;;;143736;569;47020;-81
2022/01/01 10:46:05;;;;;;;20.85;14.57;;;;;;;;;;143735;762;47020;-80
2022/01/01 10:48:52;;;;;;;23.08;16.15;;;;;;;;;;143734;608;46023;-81
2022/01/01 10:51:20;;;;;;;20.62;15.73;;;;;;;;;;143737;569;45029;-80
2022/01/01 10:53:59;;;;;;;20.40;16.00;;;;;;;;;;143736;569;46021;-79
2022/01/01 10:56:38;;;;;;;21.20;16.90;;;;;;;;;;143738;621;46018;-80
2022/01/01 10:59:09;;;;;;;22.75;16.58;;;;;;;;;;143734;732;46022;-80
2022/01/01 11:01:44;;;;;;;20.00;15.02;;;;;;;;;;143733;593;46011;-79
2022/01/01 11:04:16;;;;;;;20.05;15.48;;;;;;;;;;143733;696;47021;-79
2022/01/01 11:06:47;;;;;;;21.98;14.57;;;;;;;;;;143737;608;46018;-78
2022/01/01 11:09:17;;;;;;;17.20;13.40;;;;;;;;;;143733;574;47022;-80
2022/01/01 11:11:44;;;;;;;18.30;14.45;;;;;;;;;;143736;845;46010;-79
2022/01/01 11:14:11;;;;;;;9.40;7.12;;;;;;;;;;143736;637;46020;-79
2022/01/01 11:16:45;;;;;;;6.12;4.07;;;;;;;;;;143735;596;46014;-79
2022/01/01 11:19:19;;;;;;;7.62;5.43;;;;;;;;;;143732;620;47020;-80
2022/01/01 11:21:48;;;;;;;7.95;5.65;;;;;;;;;;143736;790;46020;-81
2022/01/01 11:24:19;;;;;;;11.40;8.90;;;;;;;;;;143735;600;46021;-81
2022/01/01 11:26:59;;;;;;;12.27;8.45;;;;;;;;;;143735;579;46020;-80
2022/01/01 11:29:34;;;;;;;11.35;9.35;;;;;;;;;;143734;620;46022;-79
2022/01/01 11:32:25;;;;;;;11.98;9.00;;;;;;;;;;143735;586;46012;-78
2022/01/01 11:35:03;;;;;;;11.70;9.20;;;;;;;;;;143734;565;46020;-79
2022/01/01 11:37:55;;;;;;;11.15;9.18;;;;;;;;;;143737;573;46010;-81
2022/01/01 11:40:23;;;;;;;17.65;11.18;;;;;;;;;;143733;586;47021;-80
2022/01/01 11:42:52;;;;;;;15.38;10.82;;;;;;;;;;143735;634;46010;-81
2022/01/01 11:45:44;;;;;;;12.32;9.32;;;;;;;;;;143736;593;46012;-79
2022/01/01 11:48:32;;;;;;;7.68;5.75;;;;;;;;;;143736;583;46012;-78
2022/01/01 11:51:28;;;;;;;9.10;6.65;;;;;;;;;;143732;564;47024;-79
2022/01/01 11:54:26;;;;;;;18.00;10.63;;;;;;;;;;143735;570;46010;-80
2022/01/01 11:57:25;;;;;;;14.57;11.57;;;;;;;;;;143735;577;46029;-80
2022/01/01 12:00:00;;;;;;;11.38;8.88;;;;;;;;;;143736;598;46010;-80
2022/01/01 12:02:32;;;;;;;15.07;11.07;;;;;;;;;;143734;594;47021;-79
2022/01/01 12:05:22;;;;;;;16.73;11.25;;;;;;;;;;143732;606;47010;-80
2022/01/01 12:08:00;;;;;;;16.62;11.30;;;;;;;;;;143736;615;46049;-80
2022/01/01 12:10:52;;;;;;;9.90;7.45;;;;;;;;;;143736;706;46021;-80
2022/01/01 12:13:38;;;;;;;19.60;11.35;;;;;;;;;;143734;592;46022;-79
2022/01/01 12:16:50;;;;;;;15.93;12.98;;;;;;;;;;143734;569;46021;-79
2022/01/01 12:19:22;;;;;;;23.65;16.80;;;;;;;;;;143733;618;46020;-79
2022/01/01 12:22:13;;;;;;;;;;;;;;;;;;143740;981;46010;-81
2022/01/01 12:24:52;;;;;;;15.70;10.75;;;;;;;;;;143742;852;45039;-80
2022/01/01 12:27:20;;;;;;;14.60;11.70;;;;;;;;;;143735;594;46020;-81
2022/01/01 12:30:05;;;;;;;14.50;11.90;;;;;;;;;;143736;612;46014;-79
2022/01/01 12:32:53;;;;;;;22.42;16.65;;;;;;;;;;143736;606;46021;-81
2022/01/01 12:35:42;;;;;;;23.58;18.27;;;;;;;;;;143734;624;46020;-81
2022/01/01 12:38:40;;;;;;;27.80;18.58;;;;;;;;;;143738;573;46020;-83
2022/01/01 12:41:46;;;;;;;23.75;15.95;;;;;;;;;;143735;581;46020;-82
2022/01/01 12:44:41;;;;;;;;;;;;;;;;;;;;;
2022/01/01 12:47:14;;;;;;;15.07;11.27;;;;;;;;;;143736;585;46024;-81
2022/01/01 12:49:46;;;;;;;12.25;9.25;;;;;;;;;;143734;589;46012;-80
2022/01/01 12:52:24;;;;;;;21.23;12.18;;;;;;;;;;143733;587;46018;-80
2022/01/01 12:55:02;;;;;;;13.73;9.45;;;;;;;;;;143736;587;46018;-80
2022/01/01 12:57:32;;;;;;;17.20;11.45;;;;;;;;;;143734;602;46022;-80
2022/01/01 13:00:21;;;;;;;22.20;15.18;;;;;;;;;;143733;613;46012;-80
2022/01/01 13:02:55;;;;;;;18.83;12.65;;;;;;;;;;143736;584;46021;-80
2022/01/01 13:05:26;;;;;;;15.38;11.68;;;;;;;;;;143736;622;46012;-79
2022/01/01 13:07:54;;;;;;;9.85;8.50;;;;;;;;;;143734;595;46021;-82
2022/01/01 13:10:24;;;;;;;13.80;7.60;;;;;;;;;;143736;616;46012;-81
2022/01/01 13:12:54;;;;;;;11.30;8.65;;;;;;;;;;143736;566;46020;-81
2022/01/01 13:15:24;;;;;;;12.45;9.32;;;;;;;;;;143736;613;46019;-81
2022/01/01 13:17:52;;;;;;;9.75;7.25;;;;;;;;;;143734;617;47023;-82
2022/01/01 13:20:19;;;;;;;10.25;6.68;;;;;;;;;;143735;587;46012;-80
2022/01/01 13:22:48;;;;;;;9.48;6.65;;;;;;;;;;143733;623;47020;-81
2022/01/01 13:25:15;;;;;;;10.50;7.25;;;;;;;;;;143736;716;46018;-81
2022/01/01 13:27:48;;;;;;;9.90;7.50;;;;;;;;;;143735;579;46020;-82
2022/01/01 13:30:15;;;;;;;9.98;6.87;;;;;;;;;;143735;593;46012;-82
2022/01/01 13:32:51;;;;;;;11.82;9.57;;;;;;;;;;143736;627;47014;-82
2022/01/01 13:35:31;;;;;;;8.60;6.87;;;;;;;;;;143735;600;46012;-80
2022/01/01 13:38:00;;;;;;;9.38;8.13;;;;;;;;;;143733;566;47020;-81
2022/01/01 13:40:34;;;;;;;9.80;6.70;;;;;;;;;;143732;616;46012;-81
2022/01/01 13:43:11;;;;;;;11.50;8.45;;;;;;;;;;143734;591;47020;-82
2022/01/01 13:45:40;;;;;;;14.87;9.77;;;;;;;;;;143735;582;46020;-81
2022/01/01 13:48:18;;;;;;;14.82;10.85;;;;;;;;;;143732;585;47023;-81
2022/01/01 13:50:47;;;;;;;28.70;20.75;;;;;;;;;;143735;577;46020;-81
2022/01/01 13:53:14;;;;;;;18.70;13.62;;;;;;;;;;143734;584;46021;-82
2022/01/01 13:55:55;;;;;;;13.93;9.55;;;;;;;;;;143733;593;46018;-80
2022/01/01 13:58:27;;;;;;;12.80;9.18;;;;;;;;;;143733;563;46020;-83
2022/01/01 14:01:01;;;;;;;10.18;8.45;;;;;;;;;;143733;594;46020;-82
2022/01/01 14:03:33;;;;;;;12.63;9.57;;;;;;;;;;143736;700;46014;-82
2022/01/01 14:06:00;;;;;;;10.82;9.18;;;;;;;;;;143734;638;46012;-82
2022/01/01 14:08:27;;;;;;;15.82;12.85;;;;;;;;;;143733;570;46022;-81
2022/01/01 14:10:57;;;;;;;13.05;10.38;;;;;;;;;;143732;591;46012;-82
2022/01/01 14:13:38;;;;;;;18.98;15.18;;;;;;;;;;143731;615;47032;-81
2022/01/01 14:16:24;;;;;;;19.20;14.82;;;;;;;;;;143735;595;46013;-81
2022/01/01 14:18:53;;;;;;;16.62;13.38;;;;;;;;;;143731;586;47020;-81
2022/01/01 14:21:26;;;;;;;15.75;13.57;;;;;;;;;;143732;580;46012;-82
2022/01/01 14:23:55;;;;;;;18.87;13.23;;;;;;;;;;143735;573;46015;-81
2022/01/01 14:26:25;;;;;;;15.50;12.25;;;;;;;;;;143735;578;46012;-81
2022/01/01 14:28:54;;;;;;;14.10;12.45;;;;;;;;;;143733;605;46016;-81
2022/01/01 14:31:22;;;;;;;16.05;13.40;;;;;;;;;;143733;610;46013;-82
2022/01/01 14:33:50;;;;;;;17.73;13.05;;;;;;;;;;143731;581;46020;-82
2022/01/01 14:36:19;;;;;;;13.95;12.43;;;;;;;;;;143733;620;47020;-81
2022/01/01 14:38:52;;;;;;;17.05;12.50;;;;;;;;;;143733;601;46911;-81
2022/01/01 14:41:22;;;;;;;14.70;13.05;;;;;;;;;;143731;569;46012;-83
2022/01/01 14:43:51;;;;;;;14.18;11.02;;;;;;;;;;143735;591;46020;-82
2022/01/01 14:46:23;;;;;;;17.87;12.55;;;;;;;;;;143734;579;46021;-82
2022/01/01 14:49:02;;;;;;;18.65;14.35;;;;;;;;;;143732;613;47020;-81
2022/01/01 14:51:52;;;;;;;16.62;14.18;;;;;;;;;;143730;578;46915;-82